<?xml version="1.0" encoding="UTF-8" standalone="no" ?>
<gpx xmlns="http://www.topografix.com/GPX/1/1" xmlns:xsi="http://www.w3.org/2001/XMLSchema-instance" xsi:schemaLocation="http://www.topografix.com/GPX/1/1 http://www.topografix.com/GPX/1/1/gpx.xsd" version="1.1" creator="VisuGPX - https://www.visugpx.com">
  <metadata>
    <name>Die / Valcroissant</name>
    <desc><![CDATA[Sur les pas des Huguenots - Etape Die / Valcroissant]]></desc>
  </metadata>
  <trk>
    <name><![CDATA[6 Gpsies-MNT]]></name>
    <trkseg>
      <trkpt lat="44.75146" lon="5.3691">
        <ele>408</ele>
        <time>2011-08-17T15:35:23Z</time>
      </trkpt>
      <trkpt lat="44.75124" lon="5.36948">
        <ele>409</ele>
        <time>2011-08-17T15:35:37Z</time>
      </trkpt>
      <trkpt lat="44.75094" lon="5.37025">
        <ele>410</ele>
        <time>2011-08-17T15:36:02Z</time>
      </trkpt>
      <trkpt lat="44.75089" lon="5.37054">
        <ele>410</ele>
        <time>2011-08-17T15:36:10Z</time>
      </trkpt>
      <trkpt lat="44.75084" lon="5.37102">
        <ele>409</ele>
        <time>2011-08-17T15:36:24Z</time>
      </trkpt>
      <trkpt lat="44.75089" lon="5.37126">
        <ele>410</ele>
        <time>2011-08-17T15:36:31Z</time>
      </trkpt>
      <trkpt lat="44.75123" lon="5.37184">
        <ele>409</ele>
        <time>2011-08-17T15:36:52Z</time>
      </trkpt>
      <trkpt lat="44.75145" lon="5.37232">
        <ele>409</ele>
        <time>2011-08-17T15:37:09Z</time>
      </trkpt>
      <trkpt lat="44.7515" lon="5.37254">
        <ele>408</ele>
        <time>2011-08-17T15:37:15Z</time>
      </trkpt>
      <trkpt lat="44.75202" lon="5.37309">
        <ele>411</ele>
        <time>2011-08-17T15:37:41Z</time>
      </trkpt>
      <trkpt lat="44.75224" lon="5.37314">
        <ele>412</ele>
        <time>2011-08-17T15:37:50Z</time>
      </trkpt>
      <trkpt lat="44.75248" lon="5.37328">
        <ele>413</ele>
        <time>2011-08-17T15:38:00Z</time>
      </trkpt>
      <trkpt lat="44.75272" lon="5.37352">
        <ele>414</ele>
        <time>2011-08-17T15:38:12Z</time>
      </trkpt>
      <trkpt lat="44.75299" lon="5.37366">
        <ele>415</ele>
        <time>2011-08-17T15:38:23Z</time>
      </trkpt>
      <trkpt lat="44.75299" lon="5.37366">
        <ele>415</ele>
        <time>2011-08-17T15:38:24Z</time>
      </trkpt>
      <trkpt lat="44.75209" lon="5.37483">
        <ele>413</ele>
        <time>2011-08-17T15:39:13Z</time>
      </trkpt>
      <trkpt lat="44.75209" lon="5.37483">
        <ele>413</ele>
        <time>2011-08-17T15:39:13Z</time>
      </trkpt>
      <trkpt lat="44.75205" lon="5.37482">
        <ele>413</ele>
        <time>2011-08-17T15:39:14Z</time>
      </trkpt>
      <trkpt lat="44.75201" lon="5.37489">
        <ele>413</ele>
        <time>2011-08-17T15:39:17Z</time>
      </trkpt>
      <trkpt lat="44.75205" lon="5.37497">
        <ele>413</ele>
        <time>2011-08-17T15:39:20Z</time>
      </trkpt>
      <trkpt lat="44.75211" lon="5.37493">
        <ele>413</ele>
        <time>2011-08-17T15:39:22Z</time>
      </trkpt>
      <trkpt lat="44.75211" lon="5.37493">
        <ele>413</ele>
        <time>2011-08-17T15:39:22Z</time>
      </trkpt>
      <trkpt lat="44.75228" lon="5.37504">
        <ele>414</ele>
        <time>2011-08-17T15:39:30Z</time>
      </trkpt>
      <trkpt lat="44.75228" lon="5.37504">
        <ele>414</ele>
        <time>2011-08-17T15:39:30Z</time>
      </trkpt>
      <trkpt lat="44.75313" lon="5.37601">
        <ele>416</ele>
        <time>2011-08-17T15:40:14Z</time>
      </trkpt>
      <trkpt lat="44.75443" lon="5.37769">
        <ele>419</ele>
        <time>2011-08-17T15:41:24Z</time>
      </trkpt>
      <trkpt lat="44.7546" lon="5.37803">
        <ele>419</ele>
        <time>2011-08-17T15:41:36Z</time>
      </trkpt>
      <trkpt lat="44.75471" lon="5.37863">
        <ele>421</ele>
        <time>2011-08-17T15:41:54Z</time>
      </trkpt>
      <trkpt lat="44.75482" lon="5.37881">
        <ele>421</ele>
        <time>2011-08-17T15:42:00Z</time>
      </trkpt>
      <trkpt lat="44.75507" lon="5.37906">
        <ele>421</ele>
        <time>2011-08-17T15:42:13Z</time>
      </trkpt>
      <trkpt lat="44.75505" lon="5.37942">
        <ele>423</ele>
        <time>2011-08-17T15:42:23Z</time>
      </trkpt>
      <trkpt lat="44.75494" lon="5.37999">
        <ele>426</ele>
        <time>2011-08-17T15:42:40Z</time>
      </trkpt>
      <trkpt lat="44.75494" lon="5.37999">
        <ele>426</ele>
        <time>2011-08-17T15:42:40Z</time>
      </trkpt>
      <trkpt lat="44.75479" lon="5.38057">
        <ele>427</ele>
        <time>2011-08-17T15:42:57Z</time>
      </trkpt>
      <trkpt lat="44.75449" lon="5.38141">
        <ele>430</ele>
        <time>2011-08-17T15:43:24Z</time>
      </trkpt>
      <trkpt lat="44.75379" lon="5.3829">
        <ele>444</ele>
        <time>2011-08-17T15:44:15Z</time>
      </trkpt>
      <trkpt lat="44.7537" lon="5.38317">
        <ele>444</ele>
        <time>2011-08-17T15:44:23Z</time>
      </trkpt>
      <trkpt lat="44.7537" lon="5.38317">
        <ele>444</ele>
        <time>2011-08-17T15:44:23Z</time>
      </trkpt>
      <trkpt lat="44.75416" lon="5.38442">
        <ele>452</ele>
        <time>2011-08-17T15:45:03Z</time>
      </trkpt>
      <trkpt lat="44.7545" lon="5.38557">
        <ele>465</ele>
        <time>2011-08-17T15:45:39Z</time>
      </trkpt>
      <trkpt lat="44.75467" lon="5.38595">
        <ele>467</ele>
        <time>2011-08-17T15:45:51Z</time>
      </trkpt>
      <trkpt lat="44.75502" lon="5.38651">
        <ele>478</ele>
        <time>2011-08-17T15:46:13Z</time>
      </trkpt>
      <trkpt lat="44.75502" lon="5.38651">
        <ele>478</ele>
        <time>2011-08-17T15:46:13Z</time>
      </trkpt>
      <trkpt lat="44.75504" lon="5.38677">
        <ele>476</ele>
        <time>2011-08-17T15:46:20Z</time>
      </trkpt>
      <trkpt lat="44.75498" lon="5.38706">
        <ele>473</ele>
        <time>2011-08-17T15:46:29Z</time>
      </trkpt>
      <trkpt lat="44.75473" lon="5.38719">
        <ele>474</ele>
        <time>2011-08-17T15:46:39Z</time>
      </trkpt>
      <trkpt lat="44.7547" lon="5.38725">
        <ele>474</ele>
        <time>2011-08-17T15:46:41Z</time>
      </trkpt>
      <trkpt lat="44.75474" lon="5.3874">
        <ele>475</ele>
        <time>2011-08-17T15:46:46Z</time>
      </trkpt>
      <trkpt lat="44.75497" lon="5.38775">
        <ele>485</ele>
        <time>2011-08-17T15:47:00Z</time>
      </trkpt>
      <trkpt lat="44.75513" lon="5.38809">
        <ele>491</ele>
        <time>2011-08-17T15:47:11Z</time>
      </trkpt>
      <trkpt lat="44.75513" lon="5.38809">
        <ele>491</ele>
        <time>2011-08-17T15:47:11Z</time>
      </trkpt>
      <trkpt lat="44.75584" lon="5.3896">
        <ele>500</ele>
        <time>2011-08-17T15:48:03Z</time>
      </trkpt>
      <trkpt lat="44.75599" lon="5.39013">
        <ele>501</ele>
        <time>2011-08-17T15:48:19Z</time>
      </trkpt>
      <trkpt lat="44.75588" lon="5.3904">
        <ele>501</ele>
        <time>2011-08-17T15:48:28Z</time>
      </trkpt>
      <trkpt lat="44.75572" lon="5.39057">
        <ele>507</ele>
        <time>2011-08-17T15:48:36Z</time>
      </trkpt>
      <trkpt lat="44.75528" lon="5.39018">
        <ele>510</ele>
        <time>2011-08-17T15:48:57Z</time>
      </trkpt>
      <trkpt lat="44.75515" lon="5.38995">
        <ele>510</ele>
        <time>2011-08-17T15:49:05Z</time>
      </trkpt>
      <trkpt lat="44.75507" lon="5.38993">
        <ele>511</ele>
        <time>2011-08-17T15:49:08Z</time>
      </trkpt>
      <trkpt lat="44.75486" lon="5.39025">
        <ele>514</ele>
        <time>2011-08-17T15:49:21Z</time>
      </trkpt>
      <trkpt lat="44.75478" lon="5.39052">
        <ele>514</ele>
        <time>2011-08-17T15:49:29Z</time>
      </trkpt>
      <trkpt lat="44.75478" lon="5.39052">
        <ele>514</ele>
        <time>2011-08-17T15:49:29Z</time>
      </trkpt>
      <trkpt lat="44.75466" lon="5.39113">
        <ele>521</ele>
        <time>2011-08-17T15:49:47Z</time>
      </trkpt>
      <trkpt lat="44.75472" lon="5.39157">
        <ele>523</ele>
        <time>2011-08-17T15:50:00Z</time>
      </trkpt>
      <trkpt lat="44.75452" lon="5.39174">
        <ele>533</ele>
        <time>2011-08-17T15:50:09Z</time>
      </trkpt>
      <trkpt lat="44.75439" lon="5.39209">
        <ele>537</ele>
        <time>2011-08-17T15:50:20Z</time>
      </trkpt>
      <trkpt lat="44.75425" lon="5.39226">
        <ele>541</ele>
        <time>2011-08-17T15:50:28Z</time>
      </trkpt>
      <trkpt lat="44.75402" lon="5.39243">
        <ele>545</ele>
        <time>2011-08-17T15:50:38Z</time>
      </trkpt>
      <trkpt lat="44.7541" lon="5.3926">
        <ele>552</ele>
        <time>2011-08-17T15:50:44Z</time>
      </trkpt>
      <trkpt lat="44.75434" lon="5.39274">
        <ele>553</ele>
        <time>2011-08-17T15:50:54Z</time>
      </trkpt>
      <trkpt lat="44.7543" lon="5.39324">
        <ele>561</ele>
        <time>2011-08-17T15:51:08Z</time>
      </trkpt>
      <trkpt lat="44.75433" lon="5.3937">
        <ele>571</ele>
        <time>2011-08-17T15:51:22Z</time>
      </trkpt>
      <trkpt lat="44.75433" lon="5.3937">
        <ele>571</ele>
        <time>2011-08-17T15:51:22Z</time>
      </trkpt>
      <trkpt lat="44.75439" lon="5.39414">
        <ele>575</ele>
        <time>2011-08-17T15:51:34Z</time>
      </trkpt>
      <trkpt lat="44.75438" lon="5.39451">
        <ele>585</ele>
        <time>2011-08-17T15:51:45Z</time>
      </trkpt>
      <trkpt lat="44.75448" lon="5.39478">
        <ele>587</ele>
        <time>2011-08-17T15:51:54Z</time>
      </trkpt>
      <trkpt lat="44.7546" lon="5.39566">
        <ele>600</ele>
        <time>2011-08-17T15:52:19Z</time>
      </trkpt>
      <trkpt lat="44.75477" lon="5.39631">
        <ele>616</ele>
        <time>2011-08-17T15:52:39Z</time>
      </trkpt>
      <trkpt lat="44.75507" lon="5.397">
        <ele>643</ele>
        <time>2011-08-17T15:53:02Z</time>
      </trkpt>
      <trkpt lat="44.75525" lon="5.39757">
        <ele>660</ele>
        <time>2011-08-17T15:53:19Z</time>
      </trkpt>
      <trkpt lat="44.75533" lon="5.39808">
        <ele>667</ele>
        <time>2011-08-17T15:53:34Z</time>
      </trkpt>
      <trkpt lat="44.75533" lon="5.39839">
        <ele>677</ele>
        <time>2011-08-17T15:53:43Z</time>
      </trkpt>
      <trkpt lat="44.75544" lon="5.39867">
        <ele>682</ele>
        <time>2011-08-17T15:53:52Z</time>
      </trkpt>
      <trkpt lat="44.75546" lon="5.39939">
        <ele>698</ele>
        <time>2011-08-17T15:54:13Z</time>
      </trkpt>
      <trkpt lat="44.75554" lon="5.4003">
        <ele>721</ele>
        <time>2011-08-17T15:54:39Z</time>
      </trkpt>
      <trkpt lat="44.75591" lon="5.40129">
        <ele>759</ele>
      </trkpt>
      <trkpt lat="44.75555" lon="5.40143">
        <ele>756</ele>
        <time>2011-08-17T15:55:13Z</time>
      </trkpt>
      <trkpt lat="44.75396" lon="5.40163">
        <ele>762</ele>
        <time>2011-08-17T15:56:17Z</time>
      </trkpt>
      <trkpt lat="44.75321" lon="5.40217">
        <ele>766</ele>
        <time>2011-08-17T15:56:51Z</time>
      </trkpt>
      <trkpt lat="44.75308" lon="5.40236">
        <ele>768</ele>
        <time>2011-08-17T15:56:58Z</time>
      </trkpt>
      <trkpt lat="44.75308" lon="5.40236">
        <ele>768</ele>
        <time>2011-08-17T15:56:58Z</time>
      </trkpt>
      <trkpt lat="44.75289" lon="5.40298">
        <ele>787</ele>
      </trkpt>
      <trkpt lat="44.75339" lon="5.40415">
        <ele>841</ele>
      </trkpt>
      <trkpt lat="44.75376" lon="5.40429">
        <ele>870</ele>
      </trkpt>
      <trkpt lat="44.75401" lon="5.40456">
        <ele>878</ele>
        <time>2011-08-17T15:58:13Z</time>
      </trkpt>
      <trkpt lat="44.75422" lon="5.40497">
        <ele>903</ele>
      </trkpt>
      <trkpt lat="44.75452" lon="5.40524">
        <ele>928</ele>
        <time>2011-08-17T15:58:42Z</time>
      </trkpt>
      <trkpt lat="44.75416" lon="5.40603">
        <ele>944</ele>
      </trkpt>
      <trkpt lat="44.75375" lon="5.40639">
        <ele>948</ele>
        <time>2011-08-17T15:59:30Z</time>
      </trkpt>
      <trkpt lat="44.75322" lon="5.40656">
        <ele>943</ele>
        <time>2011-08-17T15:59:52Z</time>
      </trkpt>
      <trkpt lat="44.75212" lon="5.40737">
        <ele>950</ele>
        <time>2011-08-17T16:00:42Z</time>
      </trkpt>
      <trkpt lat="44.75133" lon="5.40805">
        <ele>959</ele>
        <time>2011-08-17T16:01:19Z</time>
      </trkpt>
      <trkpt lat="44.75128" lon="5.40822">
        <ele>961</ele>
        <time>2011-08-17T16:01:24Z</time>
      </trkpt>
      <trkpt lat="44.75128" lon="5.40822">
        <ele>961</ele>
        <time>2011-08-17T16:01:24Z</time>
      </trkpt>
      <trkpt lat="44.7516" lon="5.40921">
        <ele>952</ele>
        <time>2011-08-17T16:01:55Z</time>
      </trkpt>
      <trkpt lat="44.75151" lon="5.40973">
        <ele>955</ele>
        <time>2011-08-17T16:02:10Z</time>
      </trkpt>
      <trkpt lat="44.75129" lon="5.41034">
        <ele>943</ele>
        <time>2011-08-17T16:02:29Z</time>
      </trkpt>
      <trkpt lat="44.75083" lon="5.41135">
        <ele>939</ele>
        <time>2011-08-17T16:03:04Z</time>
      </trkpt>
      <trkpt lat="44.75018" lon="5.41251">
        <ele>910</ele>
        <time>2011-08-17T16:03:46Z</time>
      </trkpt>
      <trkpt lat="44.74959" lon="5.41379">
        <ele>896</ele>
        <time>2011-08-17T16:04:29Z</time>
      </trkpt>
      <trkpt lat="44.74902" lon="5.41466">
        <ele>882</ele>
        <time>2011-08-17T16:05:03Z</time>
      </trkpt>
      <trkpt lat="44.74855" lon="5.41522">
        <ele>864</ele>
        <time>2011-08-17T16:05:27Z</time>
      </trkpt>
      <trkpt lat="44.7482" lon="5.41554">
        <ele>858</ele>
        <time>2011-08-17T16:05:44Z</time>
      </trkpt>
      <trkpt lat="44.7482" lon="5.41554">
        <ele>858</ele>
        <time>2011-08-17T16:05:44Z</time>
      </trkpt>
      <trkpt lat="44.74814" lon="5.41564">
        <ele>856</ele>
        <time>2011-08-17T16:05:48Z</time>
      </trkpt>
      <trkpt lat="44.74818" lon="5.4157">
        <ele>856</ele>
        <time>2011-08-17T16:05:50Z</time>
      </trkpt>
      <trkpt lat="44.74863" lon="5.41564">
        <ele>857</ele>
        <time>2011-08-17T16:06:08Z</time>
      </trkpt>
      <trkpt lat="44.74921" lon="5.41564">
        <ele>846</ele>
        <time>2011-08-17T16:06:31Z</time>
      </trkpt>
      <trkpt lat="44.74961" lon="5.41574">
        <ele>843</ele>
        <time>2011-08-17T16:06:48Z</time>
      </trkpt>
      <trkpt lat="44.74976" lon="5.4157">
        <ele>841</ele>
        <time>2011-08-17T16:06:54Z</time>
      </trkpt>
      <trkpt lat="44.75022" lon="5.4153">
        <ele>832</ele>
        <time>2011-08-17T16:07:15Z</time>
      </trkpt>
      <trkpt lat="44.75056" lon="5.41516">
        <ele>827</ele>
        <time>2011-08-17T16:07:30Z</time>
      </trkpt>
      <trkpt lat="44.75106" lon="5.41461">
        <ele>823</ele>
        <time>2011-08-17T16:07:55Z</time>
      </trkpt>
      <trkpt lat="44.75186" lon="5.41404">
        <ele>813</ele>
        <time>2011-08-17T16:08:31Z</time>
      </trkpt>
      <trkpt lat="44.75186" lon="5.41404">
        <ele>813</ele>
        <time>2011-08-17T16:08:31Z</time>
      </trkpt>
      <trkpt lat="44.75169" lon="5.41486">
        <ele>801</ele>
        <time>2011-08-17T16:08:55Z</time>
      </trkpt>
      <trkpt lat="44.7517" lon="5.41513">
        <ele>795</ele>
        <time>2011-08-17T16:09:03Z</time>
      </trkpt>
      <trkpt lat="44.75166" lon="5.41535">
        <ele>802</ele>
        <time>2011-08-17T16:09:09Z</time>
      </trkpt>
      <trkpt lat="44.75168" lon="5.41573">
        <ele>786</ele>
        <time>2011-08-17T16:09:20Z</time>
      </trkpt>
      <trkpt lat="44.75146" lon="5.41644">
        <ele>784</ele>
        <time>2011-08-17T16:09:42Z</time>
      </trkpt>
      <trkpt lat="44.75137" lon="5.41697">
        <ele>773</ele>
        <time>2011-08-17T16:09:58Z</time>
      </trkpt>
      <trkpt lat="44.75114" lon="5.41737">
        <ele>772</ele>
        <time>2011-08-17T16:10:12Z</time>
      </trkpt>
      <trkpt lat="44.75109" lon="5.41754">
        <ele>763</ele>
        <time>2011-08-17T16:10:18Z</time>
      </trkpt>
      <trkpt lat="44.75092" lon="5.41778">
        <ele>761</ele>
        <time>2011-08-17T16:10:27Z</time>
      </trkpt>
      <trkpt lat="44.75061" lon="5.41797">
        <ele>765</ele>
        <time>2011-08-17T16:10:41Z</time>
      </trkpt>
      <trkpt lat="44.75018" lon="5.41814">
        <ele>764</ele>
        <time>2011-08-17T16:10:59Z</time>
      </trkpt>
      <trkpt lat="44.74956" lon="5.41866">
        <ele>761</ele>
        <time>2011-08-17T16:11:27Z</time>
      </trkpt>
      <trkpt lat="44.74934" lon="5.41891">
        <ele>760</ele>
        <time>2011-08-17T16:11:39Z</time>
      </trkpt>
      <trkpt lat="44.7491" lon="5.41934">
        <ele>761</ele>
        <time>2011-08-17T16:11:54Z</time>
      </trkpt>
      <trkpt lat="44.7491" lon="5.41934">
        <ele>761</ele>
        <time>2011-08-17T16:11:54Z</time>
      </trkpt>
      <trkpt lat="44.74896" lon="5.41958">
        <ele>761</ele>
        <time>2011-08-17T16:12:03Z</time>
      </trkpt>
      <trkpt lat="44.74896" lon="5.41969">
        <ele>760</ele>
        <time>2011-08-17T16:12:06Z</time>
      </trkpt>
      <trkpt lat="44.74904" lon="5.41992">
        <ele>757</ele>
        <time>2011-08-17T16:12:14Z</time>
      </trkpt>
      <trkpt lat="44.74897" lon="5.42045">
        <ele>757</ele>
        <time>2011-08-17T16:12:29Z</time>
      </trkpt>
      <trkpt lat="44.74928" lon="5.42089">
        <ele>746</ele>
        <time>2011-08-17T16:12:46Z</time>
      </trkpt>
      <trkpt lat="44.74949" lon="5.42107">
        <ele>743</ele>
        <time>2011-08-17T16:12:56Z</time>
      </trkpt>
      <trkpt lat="44.74987" lon="5.42119">
        <ele>741</ele>
        <time>2011-08-17T16:13:12Z</time>
      </trkpt>
      <trkpt lat="44.7501" lon="5.42118">
        <ele>736</ele>
        <time>2011-08-17T16:13:21Z</time>
      </trkpt>
      <trkpt lat="44.75033" lon="5.42131">
        <ele>735</ele>
        <time>2011-08-17T16:13:31Z</time>
      </trkpt>
      <trkpt lat="44.75033" lon="5.42131">
        <ele>735</ele>
        <time>2011-08-17T16:13:31Z</time>
      </trkpt>
      <trkpt lat="44.75054" lon="5.42143">
        <ele>734</ele>
        <time>2011-08-17T16:13:40Z</time>
      </trkpt>
      <trkpt lat="44.75071" lon="5.42161">
        <ele>733</ele>
        <time>2011-08-17T16:13:49Z</time>
      </trkpt>
      <trkpt lat="44.75087" lon="5.4219">
        <ele>728</ele>
        <time>2011-08-17T16:13:59Z</time>
      </trkpt>
      <trkpt lat="44.75094" lon="5.42213">
        <ele>727</ele>
        <time>2011-08-17T16:14:06Z</time>
      </trkpt>
      <trkpt lat="44.75078" lon="5.42293">
        <ele>726</ele>
        <time>2011-08-17T16:14:30Z</time>
      </trkpt>
      <trkpt lat="44.75078" lon="5.42361">
        <ele>722</ele>
        <time>2011-08-17T16:14:49Z</time>
      </trkpt>
      <trkpt lat="44.7507" lon="5.42399">
        <ele>722</ele>
        <time>2011-08-17T16:15:00Z</time>
      </trkpt>
      <trkpt lat="44.75059" lon="5.42422">
        <ele>720</ele>
        <time>2011-08-17T16:15:08Z</time>
      </trkpt>
      <trkpt lat="44.75051" lon="5.4241">
        <ele>722</ele>
        <time>2011-08-17T16:15:13Z</time>
      </trkpt>
      <trkpt lat="44.75032" lon="5.42411">
        <ele>721</ele>
        <time>2011-08-17T16:15:21Z</time>
      </trkpt>
      <trkpt lat="44.75005" lon="5.42434">
        <ele>718</ele>
        <time>2011-08-17T16:15:33Z</time>
      </trkpt>
      <trkpt lat="44.74988" lon="5.42459">
        <ele>711</ele>
        <time>2011-08-17T16:15:43Z</time>
      </trkpt>
      <trkpt lat="44.74986" lon="5.4247">
        <ele>710</ele>
        <time>2011-08-17T16:15:46Z</time>
      </trkpt>
      <trkpt lat="44.74986" lon="5.4247">
        <ele>710</ele>
        <time>2011-08-17T16:15:46Z</time>
      </trkpt>
      <trkpt lat="44.74984" lon="5.42485">
        <ele>708</ele>
        <time>2011-08-17T16:15:51Z</time>
      </trkpt>
      <trkpt lat="44.74967" lon="5.425">
        <ele>708</ele>
        <time>2011-08-17T16:15:59Z</time>
      </trkpt>
      <trkpt lat="44.7494" lon="5.42512">
        <ele>695</ele>
        <time>2011-08-17T16:16:10Z</time>
      </trkpt>
      <trkpt lat="44.74891" lon="5.42514">
        <ele>690</ele>
        <time>2011-08-17T16:16:30Z</time>
      </trkpt>
      <trkpt lat="44.74851" lon="5.42529">
        <ele>687</ele>
        <time>2011-08-17T16:16:46Z</time>
      </trkpt>
      <trkpt lat="44.74818" lon="5.42548">
        <ele>684</ele>
        <time>2011-08-17T16:17:00Z</time>
      </trkpt>
      <trkpt lat="44.748" lon="5.42574">
        <ele>681</ele>
        <time>2011-08-17T16:17:11Z</time>
      </trkpt>
      <trkpt lat="44.74787" lon="5.42572">
        <ele>682</ele>
        <time>2011-08-17T16:17:16Z</time>
      </trkpt>
      <trkpt lat="44.74769" lon="5.42581">
        <ele>680</ele>
        <time>2011-08-17T16:17:24Z</time>
      </trkpt>
      <trkpt lat="44.74769" lon="5.42581">
        <ele>680</ele>
        <time>2011-08-17T16:17:24Z</time>
      </trkpt>
      <trkpt lat="44.7473" lon="5.42594">
        <ele>666</ele>
        <time>2011-08-17T16:17:40Z</time>
      </trkpt>
      <trkpt lat="44.74663" lon="5.42588">
        <ele>661</ele>
        <time>2011-08-17T16:18:07Z</time>
      </trkpt>
      <trkpt lat="44.74592" lon="5.42597">
        <ele>651</ele>
        <time>2011-08-17T16:18:35Z</time>
      </trkpt>
      <trkpt lat="44.7452" lon="5.42572">
        <ele>654</ele>
        <time>2011-08-17T16:19:05Z</time>
      </trkpt>
      <trkpt lat="44.74475" lon="5.42583">
        <ele>645</ele>
        <time>2011-08-17T16:19:23Z</time>
      </trkpt>
      <trkpt lat="44.7445" lon="5.42582">
        <ele>644</ele>
        <time>2011-08-17T16:19:33Z</time>
      </trkpt>
      <trkpt lat="44.74373" lon="5.42554">
        <ele>630</ele>
        <time>2011-08-17T16:20:05Z</time>
      </trkpt>
      <trkpt lat="44.74255" lon="5.42476">
        <ele>634</ele>
        <time>2011-08-17T16:20:57Z</time>
      </trkpt>
      <trkpt lat="44.74255" lon="5.42476">
        <ele>634</ele>
        <time>2011-08-17T16:20:57Z</time>
      </trkpt>
      <trkpt lat="44.7421" lon="5.42472">
        <ele>621</ele>
        <time>2011-08-17T16:21:15Z</time>
      </trkpt>
      <trkpt lat="44.74179" lon="5.42482">
        <ele>615</ele>
        <time>2011-08-17T16:21:28Z</time>
      </trkpt>
    </trkseg>
  </trk>
</gpx>